sensor_id;sensor_type;location;lat;lon;timestamp;P1;durP1;ratioP1;P2;durP2;ratioP2
24483;SDS011;12643;51.620;7.548;2023-04-25T00:02:09;20.45;;;8.05;;
24483;SDS011;12643;51.620;7.548;2023-04-25T00:04:37;19.83;;;7.30;;
24483;SDS011;12643;51.620;7.548;2023-04-25T00:07:05;18.42;;;7.13;;
24483;SDS011;12643;51.620;7.548;2023-04-25T00:09:33;19.27;;;7.80;;
24483;SDS011;12643;51.620;7.548;2023-04-25T00:12:04;17.10;;;7.57;;
24483;SDS011;12643;51.620;7.548;2023-04-25T00:14:32;16.42;;;6.60;;
24483;SDS011;12643;51.620;7.548;2023-04-25T00:17:01;16.08;;;7.93;;
24483;SDS011;12643;51.620;7.548;2023-04-25T00:19:31;26.23;;;8.75;;
24483;SDS011;12643;51.620;7.548;2023-04-25T00:22:00;21.27;;;7.38;;
24483;SDS011;12643;51.620;7.548;2023-04-25T00:24:28;19.05;;;7.85;;
24483;SDS011;12643;51.620;7.548;2023-04-25T00:26:56;21.35;;;8.63;;
24483;SDS011;12643;51.620;7.548;2023-04-25T00:29:24;20.35;;;8.45;;
24483;SDS011;12643;51.620;7.548;2023-04-25T00:31:52;20.70;;;7.50;;
24483;SDS011;12643;51.620;7.548;2023-04-25T00:34:21;22.27;;;8.50;;
24483;SDS011;12643;51.620;7.548;2023-04-25T00:36:56;17.75;;;8.60;;
24483;SDS011;12643;51.620;7.548;2023-04-25T00:39:24;20.65;;;7.82;;
24483;SDS011;12643;51.620;7.548;2023-04-25T00:41:52;13.50;;;8.57;;
24483;SDS011;12643;51.620;7.548;2023-04-25T00:44:25;16.75;;;9.00;;
24483;SDS011;12643;51.620;7.548;2023-04-25T00:46:54;19.02;;;7.75;;
24483;SDS011;12643;51.620;7.548;2023-04-25T00:49:24;20.88;;;8.20;;
24483;SDS011;12643;51.620;7.548;2023-04-25T00:51:52;14.02;;;7.88;;
24483;SDS011;12643;51.620;7.548;2023-04-25T00:54:22;17.45;;;8.35;;
24483;SDS011;12643;51.620;7.548;2023-04-25T00:56:50;21.50;;;7.82;;
24483;SDS011;12643;51.620;7.548;2023-04-25T00:59:19;17.13;;;8.38;;
24483;SDS011;12643;51.620;7.548;2023-04-25T01:01:47;21.58;;;8.73;;
24483;SDS011;12643;51.620;7.548;2023-04-25T01:04:15;16.40;;;8.15;;
24483;SDS011;12643;51.620;7.548;2023-04-25T01:06:45;14.32;;;7.97;;
24483;SDS011;12643;51.620;7.548;2023-04-25T01:09:13;17.52;;;8.85;;
24483;SDS011;12643;51.620;7.548;2023-04-25T01:11:43;21.65;;;9.05;;
24483;SDS011;12643;51.620;7.548;2023-04-25T01:14:11;20.90;;;9.43;;
24483;SDS011;12643;51.620;7.548;2023-04-25T01:16:39;20.85;;;8.98;;
24483;SDS011;12643;51.620;7.548;2023-04-25T01:19:08;20.35;;;8.32;;
24483;SDS011;12643;51.620;7.548;2023-04-25T01:21:39;11.90;;;8.45;;
24483;SDS011;12643;51.620;7.548;2023-04-25T01:24:07;17.67;;;9.02;;
24483;SDS011;12643;51.620;7.548;2023-04-25T01:26:35;18.75;;;9.02;;
24483;SDS011;12643;51.620;7.548;2023-04-25T01:29:03;17.17;;;8.55;;
24483;SDS011;12643;51.620;7.548;2023-04-25T01:31:32;15.60;;;7.53;;
24483;SDS011;12643;51.620;7.548;2023-04-25T01:34:00;15.25;;;8.57;;
24483;SDS011;12643;51.620;7.548;2023-04-25T01:36:31;18.73;;;8.35;;
24483;SDS011;12643;51.620;7.548;2023-04-25T01:39:01;15.57;;;7.57;;
24483;SDS011;12643;51.620;7.548;2023-04-25T01:41:29;16.10;;;8.30;;
24483;SDS011;12643;51.620;7.548;2023-04-25T01:43:57;18.33;;;8.10;;
24483;SDS011;12643;51.620;7.548;2023-04-25T01:46:25;13.90;;;6.82;;
24483;SDS011;12643;51.620;7.548;2023-04-25T01:48:53;13.82;;;7.15;;
24483;SDS011;12643;51.620;7.548;2023-04-25T01:51:21;13.80;;;7.25;;
24483;SDS011;12643;51.620;7.548;2023-04-25T01:53:49;17.67;;;7.57;;
24483;SDS011;12643;51.620;7.548;2023-04-25T01:56:19;18.73;;;8.25;;
24483;SDS011;12643;51.620;7.548;2023-04-25T01:58:47;15.48;;;7.13;;
24483;SDS011;12643;51.620;7.548;2023-04-25T02:01:15;12.38;;;6.75;;
24483;SDS011;12643;51.620;7.548;2023-04-25T02:03:43;14.82;;;7.75;;
24483;SDS011;12643;51.620;7.548;2023-04-25T02:06:11;14.85;;;6.68;;
24483;SDS011;12643;51.620;7.548;2023-04-25T02:08:39;12.15;;;6.65;;
24483;SDS011;12643;51.620;7.548;2023-04-25T02:11:07;15.40;;;7.05;;
24483;SDS011;12643;51.620;7.548;2023-04-25T02:13:37;19.05;;;7.85;;
24483;SDS011;12643;51.620;7.548;2023-04-25T02:16:06;17.38;;;7.03;;
24483;SDS011;12643;51.620;7.548;2023-04-25T02:18:34;14.25;;;6.47;;
24483;SDS011;12643;51.620;7.548;2023-04-25T02:21:06;15.90;;;6.47;;
24483;SDS011;12643;51.620;7.548;2023-04-25T02:23:34;18.63;;;7.25;;
24483;SDS011;12643;51.620;7.548;2023-04-25T02:26:02;13.82;;;7.15;;
24483;SDS011;12643;51.620;7.548;2023-04-25T02:28:30;12.82;;;6.38;;
24483;SDS011;12643;51.620;7.548;2023-04-25T02:31:00;15.73;;;6.72;;
24483;SDS011;12643;51.620;7.548;2023-04-25T02:33:28;19.52;;;7.53;;
24483;SDS011;12643;51.620;7.548;2023-04-25T02:35:55;18.23;;;6.90;;
24483;SDS011;12643;51.620;7.548;2023-04-25T02:38:26;15.93;;;6.78;;
24483;SDS011;12643;51.620;7.548;2023-04-25T02:40:54;12.77;;;6.32;;
24483;SDS011;12643;51.620;7.548;2023-04-25T02:43:22;14.30;;;6.68;;
24483;SDS011;12643;51.620;7.548;2023-04-25T02:45:52;16.33;;;5.80;;
24483;SDS011;12643;51.620;7.548;2023-04-25T02:48:22;15.63;;;6.70;;
24483;SDS011;12643;51.620;7.548;2023-04-25T02:50:50;21.73;;;7.15;;
24483;SDS011;12643;51.620;7.548;2023-04-25T02:53:18;17.50;;;6.80;;
24483;SDS011;12643;51.620;7.548;2023-04-25T02:55:46;16.25;;;7.45;;
24483;SDS011;12643;51.620;7.548;2023-04-25T02:58:14;19.08;;;7.28;;
24483;SDS011;12643;51.620;7.548;2023-04-25T03:00:42;15.85;;;7.22;;
24483;SDS011;12643;51.620;7.548;2023-04-25T03:03:10;16.02;;;7.10;;
24483;SDS011;12643;51.620;7.548;2023-04-25T03:05:40;18.73;;;7.25;;
24483;SDS011;12643;51.620;7.548;2023-04-25T03:08:08;17.58;;;8.10;;
24483;SDS011;12643;51.620;7.548;2023-04-25T03:10:36;22.15;;;7.97;;
24483;SDS011;12643;51.620;7.548;2023-04-25T03:13:06;20.60;;;7.60;;
24483;SDS011;12643;51.620;7.548;2023-04-25T03:15:34;22.70;;;7.72;;
24483;SDS011;12643;51.620;7.548;2023-04-25T03:18:03;25.13;;;7.65;;
24483;SDS011;12643;51.620;7.548;2023-04-25T03:20:31;19.00;;;8.32;;
24483;SDS011;12643;51.620;7.548;2023-04-25T03:23:00;21.85;;;8.40;;
24483;SDS011;12643;51.620;7.548;2023-04-25T03:25:28;16.30;;;7.68;;
24483;SDS011;12643;51.620;7.548;2023-04-25T03:27:56;18.92;;;7.35;;
24483;SDS011;12643;51.620;7.548;2023-04-25T03:30:24;21.95;;;8.63;;
24483;SDS011;12643;51.620;7.548;2023-04-25T03:32:52;17.23;;;7.60;;
24483;SDS011;12643;51.620;7.548;2023-04-25T03:35:20;21.40;;;7.90;;
24483;SDS011;12643;51.620;7.548;2023-04-25T03:37:49;16.88;;;8.30;;
24483;SDS011;12643;51.620;7.548;2023-04-25T03:40:18;20.38;;;8.63;;
24483;SDS011;12643;51.620;7.548;2023-04-25T03:42:46;20.95;;;7.38;;
24483;SDS011;12643;51.620;7.548;2023-04-25T03:45:14;26.48;;;8.20;;
24483;SDS011;12643;51.620;7.548;2023-04-25T03:47:42;20.42;;;7.75;;
24483;SDS011;12643;51.620;7.548;2023-04-25T03:50:10;20.98;;;7.82;;
24483;SDS011;12643;51.620;7.548;2023-04-25T03:52:38;24.85;;;7.93;;
24483;SDS011;12643;51.620;7.548;2023-04-25T03:55:06;21.58;;;7.78;;
24483;SDS011;12643;51.620;7.548;2023-04-25T03:57:37;19.30;;;7.80;;
24483;SDS011;12643;51.620;7.548;2023-04-25T04:00:06;22.38;;;7.63;;
24483;SDS011;12643;51.620;7.548;2023-04-25T04:02:35;21.42;;;7.28;;
24483;SDS011;12643;51.620;7.548;2023-04-25T04:05:04;18.63;;;7.57;;
24483;SDS011;12643;51.620;7.548;2023-04-25T04:07:32;15.70;;;7.50;;
24483;SDS011;12643;51.620;7.548;2023-04-25T04:10:05;26.55;;;7.30;;
24483;SDS011;12643;51.620;7.548;2023-04-25T04:12:33;25.13;;;7.55;;
24483;SDS011;12643;51.620;7.548;2023-04-25T04:15:03;17.63;;;6.72;;
24483;SDS011;12643;51.620;7.548;2023-04-25T04:17:32;20.02;;;7.28;;
24483;SDS011;12643;51.620;7.548;2023-04-25T04:20:01;21.23;;;6.85;;
24483;SDS011;12643;51.620;7.548;2023-04-25T04:22:29;20.92;;;7.20;;
24483;SDS011;12643;51.620;7.548;2023-04-25T04:24:59;24.75;;;7.22;;
24483;SDS011;12643;51.620;7.548;2023-04-25T04:27:26;23.75;;;7.72;;
24483;SDS011;12643;51.620;7.548;2023-04-25T04:29:54;16.75;;;7.10;;
24483;SDS011;12643;51.620;7.548;2023-04-25T04:32:27;19.92;;;7.32;;
24483;SDS011;12643;51.620;7.548;2023-04-25T04:34:55;21.52;;;8.45;;
24483;SDS011;12643;51.620;7.548;2023-04-25T04:37:25;18.88;;;7.85;;
24483;SDS011;12643;51.620;7.548;2023-04-25T04:39:53;19.98;;;7.20;;
24483;SDS011;12643;51.620;7.548;2023-04-25T04:42:21;18.35;;;6.65;;
24483;SDS011;12643;51.620;7.548;2023-04-25T04:44:49;17.63;;;7.00;;
24483;SDS011;12643;51.620;7.548;2023-04-25T04:47:18;16.67;;;6.30;;
24483;SDS011;12643;51.620;7.548;2023-04-25T04:49:47;18.73;;;7.63;;
24483;SDS011;12643;51.620;7.548;2023-04-25T04:52:15;21.00;;;7.18;;
24483;SDS011;12643;51.620;7.548;2023-04-25T04:54:43;16.98;;;6.38;;
24483;SDS011;12643;51.620;7.548;2023-04-25T04:57:11;15.55;;;5.65;;
24483;SDS011;12643;51.620;7.548;2023-04-25T04:59:39;14.32;;;6.13;;
24483;SDS011;12643;51.620;7.548;2023-04-25T05:02:07;16.48;;;6.13;;
24483;SDS011;12643;51.620;7.548;2023-04-25T05:04:35;15.85;;;5.82;;
24483;SDS011;12643;51.620;7.548;2023-04-25T05:07:04;15.75;;;5.00;;
24483;SDS011;12643;51.620;7.548;2023-04-25T05:09:32;13.65;;;5.00;;
24483;SDS011;12643;51.620;7.548;2023-04-25T05:12:01;16.25;;;5.20;;
24483;SDS011;12643;51.620;7.548;2023-04-25T05:14:32;18.20;;;6.00;;
24483;SDS011;12643;51.620;7.548;2023-04-25T05:17:00;15.70;;;4.43;;
24483;SDS011;12643;51.620;7.548;2023-04-25T05:19:30;19.23;;;5.18;;
24483;SDS011;12643;51.620;7.548;2023-04-25T05:21:58;16.50;;;4.47;;
24483;SDS011;12643;51.620;7.548;2023-04-25T05:24:28;18.55;;;4.30;;
24483;SDS011;12643;51.620;7.548;2023-04-25T05:26:57;21.80;;;4.32;;
24483;SDS011;12643;51.620;7.548;2023-04-25T05:29:27;16.15;;;4.10;;
24483;SDS011;12643;51.620;7.548;2023-04-25T05:31:55;15.63;;;4.68;;
24483;SDS011;12643;51.620;7.548;2023-04-25T05:34:23;16.80;;;4.65;;
24483;SDS011;12643;51.620;7.548;2023-04-25T05:36:52;14.82;;;4.13;;
24483;SDS011;12643;51.620;7.548;2023-04-25T05:39:21;12.07;;;4.07;;
24483;SDS011;12643;51.620;7.548;2023-04-25T05:41:51;16.38;;;5.43;;
24483;SDS011;12643;51.620;7.548;2023-04-25T05:44:19;16.63;;;4.05;;
24483;SDS011;12643;51.620;7.548;2023-04-25T05:46:47;11.73;;;3.63;;
24483;SDS011;12643;51.620;7.548;2023-04-25T05:49:15;14.35;;;4.32;;
24483;SDS011;12643;51.620;7.548;2023-04-25T05:51:44;17.60;;;4.13;;
24483;SDS011;12643;51.620;7.548;2023-04-25T05:54:12;19.58;;;5.63;;
24483;SDS011;12643;51.620;7.548;2023-04-25T05:56:43;23.92;;;4.55;;
24483;SDS011;12643;51.620;7.548;2023-04-25T05:59:16;15.77;;;3.53;;
24483;SDS011;12643;51.620;7.548;2023-04-25T06:01:44;12.95;;;4.00;;
24483;SDS011;12643;51.620;7.548;2023-04-25T06:04:13;14.95;;;4.78;;
24483;SDS011;12643;51.620;7.548;2023-04-25T06:06:41;18.38;;;4.38;;
24483;SDS011;12643;51.620;7.548;2023-04-25T06:09:09;13.65;;;4.15;;
24483;SDS011;12643;51.620;7.548;2023-04-25T06:11:38;18.83;;;4.68;;
24483;SDS011;12643;51.620;7.548;2023-04-25T06:14:06;24.23;;;5.90;;
24483;SDS011;12643;51.620;7.548;2023-04-25T06:16:35;18.02;;;4.20;;
24483;SDS011;12643;51.620;7.548;2023-04-25T06:19:03;14.38;;;4.25;;
24483;SDS011;12643;51.620;7.548;2023-04-25T06:21:31;22.90;;;4.13;;
24483;SDS011;12643;51.620;7.548;2023-04-25T06:24:01;16.30;;;4.68;;
24483;SDS011;12643;51.620;7.548;2023-04-25T06:26:29;19.60;;;4.82;;
24483;SDS011;12643;51.620;7.548;2023-04-25T06:28:58;20.77;;;4.80;;
24483;SDS011;12643;51.620;7.548;2023-04-25T06:34:51;22.83;;;4.65;;
24483;SDS011;12643;51.620;7.548;2023-04-25T06:37:19;14.65;;;4.13;;
24483;SDS011;12643;51.620;7.548;2023-04-25T06:39:47;18.30;;;4.18;;
24483;SDS011;12643;51.620;7.548;2023-04-25T06:42:15;19.58;;;4.43;;
24483;SDS011;12643;51.620;7.548;2023-04-25T06:44:43;22.38;;;5.03;;
24483;SDS011;12643;51.620;7.548;2023-04-25T06:47:11;18.48;;;5.07;;
24483;SDS011;12643;51.620;7.548;2023-04-25T06:49:39;23.48;;;5.60;;
24483;SDS011;12643;51.620;7.548;2023-04-25T06:52:08;20.83;;;4.45;;
24483;SDS011;12643;51.620;7.548;2023-04-25T06:54:37;14.68;;;4.43;;
24483;SDS011;12643;51.620;7.548;2023-04-25T06:57:07;11.60;;;4.63;;
24483;SDS011;12643;51.620;7.548;2023-04-25T06:59:35;17.17;;;4.82;;
24483;SDS011;12643;51.620;7.548;2023-04-25T07:02:03;24.92;;;4.68;;
24483;SDS011;12643;51.620;7.548;2023-04-25T07:04:31;19.70;;;4.60;;
24483;SDS011;12643;51.620;7.548;2023-04-25T07:06:59;21.20;;;4.57;;
24483;SDS011;12643;51.620;7.548;2023-04-25T07:09:29;13.15;;;4.28;;
24483;SDS011;12643;51.620;7.548;2023-04-25T07:11:59;15.82;;;4.50;;
24483;SDS011;12643;51.620;7.548;2023-04-25T07:14:28;18.73;;;4.18;;
24483;SDS011;12643;51.620;7.548;2023-04-25T07:16:56;18.00;;;4.18;;
24483;SDS011;12643;51.620;7.548;2023-04-25T07:19:24;20.65;;;4.35;;
24483;SDS011;12643;51.620;7.548;2023-04-25T07:21:52;23.27;;;4.43;;
24483;SDS011;12643;51.620;7.548;2023-04-25T07:24:20;21.38;;;4.32;;
24483;SDS011;12643;51.620;7.548;2023-04-25T07:27:00;19.13;;;4.63;;
24483;SDS011;12643;51.620;7.548;2023-04-25T07:29:31;16.40;;;4.38;;
24483;SDS011;12643;51.620;7.548;2023-04-25T07:32:02;14.60;;;4.05;;
24483;SDS011;12643;51.620;7.548;2023-04-25T07:34:30;15.20;;;4.97;;
24483;SDS011;12643;51.620;7.548;2023-04-25T07:37:02;15.40;;;4.13;;
24483;SDS011;12643;51.620;7.548;2023-04-25T07:39:31;17.42;;;4.68;;
24483;SDS011;12643;51.620;7.548;2023-04-25T07:42:02;18.08;;;4.88;;
24483;SDS011;12643;51.620;7.548;2023-04-25T07:44:33;16.80;;;4.05;;
24483;SDS011;12643;51.620;7.548;2023-04-25T07:47:04;15.30;;;5.28;;
24483;SDS011;12643;51.620;7.548;2023-04-25T07:49:33;18.25;;;4.20;;
24483;SDS011;12643;51.620;7.548;2023-04-25T07:52:02;22.42;;;4.00;;
24483;SDS011;12643;51.620;7.548;2023-04-25T07:54:33;12.90;;;3.47;;
24483;SDS011;12643;51.620;7.548;2023-04-25T07:57:04;19.05;;;3.60;;
24483;SDS011;12643;51.620;7.548;2023-04-25T07:59:32;14.27;;;3.78;;
24483;SDS011;12643;51.620;7.548;2023-04-25T08:02:01;20.48;;;4.00;;
24483;SDS011;12643;51.620;7.548;2023-04-25T08:04:32;13.38;;;3.60;;
24483;SDS011;12643;51.620;7.548;2023-04-25T08:07:00;16.00;;;3.72;;
24483;SDS011;12643;51.620;7.548;2023-04-25T08:09:28;15.68;;;3.80;;
24483;SDS011;12643;51.620;7.548;2023-04-25T08:14:31;18.52;;;3.33;;
24483;SDS011;12643;51.620;7.548;2023-04-25T08:17:01;21.40;;;3.72;;
24483;SDS011;12643;51.620;7.548;2023-04-25T08:19:30;15.88;;;3.22;;
24483;SDS011;12643;51.620;7.548;2023-04-25T08:21:59;15.60;;;3.55;;
24483;SDS011;12643;51.620;7.548;2023-04-25T08:24:27;14.88;;;2.70;;
24483;SDS011;12643;51.620;7.548;2023-04-25T08:26:56;12.18;;;2.70;;
24483;SDS011;12643;51.620;7.548;2023-04-25T08:29:25;15.02;;;3.20;;
24483;SDS011;12643;51.620;7.548;2023-04-25T08:31:59;15.90;;;3.25;;
24483;SDS011;12643;51.620;7.548;2023-04-25T08:34:29;13.07;;;3.47;;
24483;SDS011;12643;51.620;7.548;2023-04-25T08:36:57;9.55;;;2.90;;
24483;SDS011;12643;51.620;7.548;2023-04-25T08:39:27;19.75;;;3.17;;
24483;SDS011;12643;51.620;7.548;2023-04-25T08:41:57;18.60;;;4.15;;
24483;SDS011;12643;51.620;7.548;2023-04-25T08:44:28;15.93;;;3.20;;
24483;SDS011;12643;51.620;7.548;2023-04-25T08:46:58;15.07;;;2.95;;
24483;SDS011;12643;51.620;7.548;2023-04-25T08:51:58;15.35;;;3.10;;
24483;SDS011;12643;51.620;7.548;2023-04-25T08:54:33;10.30;;;2.67;;
24483;SDS011;12643;51.620;7.548;2023-04-25T08:57:02;6.57;;;2.10;;
24483;SDS011;12643;51.620;7.548;2023-04-25T08:59:32;9.77;;;3.38;;
24483;SDS011;12643;51.620;7.548;2023-04-25T09:02:02;9.52;;;2.10;;
24483;SDS011;12643;51.620;7.548;2023-04-25T09:04:30;11.63;;;2.45;;
24483;SDS011;12643;51.620;7.548;2023-04-25T09:07:00;12.23;;;2.28;;
24483;SDS011;12643;51.620;7.548;2023-04-25T09:09:32;9.10;;;2.80;;
24483;SDS011;12643;51.620;7.548;2023-04-25T09:12:01;10.38;;;2.90;;
24483;SDS011;12643;51.620;7.548;2023-04-25T09:14:36;9.63;;;2.20;;
24483;SDS011;12643;51.620;7.548;2023-04-25T09:17:07;9.93;;;2.65;;
24483;SDS011;12643;51.620;7.548;2023-04-25T09:22:05;11.40;;;2.53;;
24483;SDS011;12643;51.620;7.548;2023-04-25T09:24:34;8.40;;;2.80;;
24483;SDS011;12643;51.620;7.548;2023-04-25T09:27:08;16.25;;;2.55;;
24483;SDS011;12643;51.620;7.548;2023-04-25T09:29:39;12.10;;;2.60;;
24483;SDS011;12643;51.620;7.548;2023-04-25T09:32:12;9.27;;;2.15;;
24483;SDS011;12643;51.620;7.548;2023-04-25T09:34:45;12.27;;;2.50;;
24483;SDS011;12643;51.620;7.548;2023-04-25T09:37:19;12.35;;;2.40;;
24483;SDS011;12643;51.620;7.548;2023-04-25T09:39:53;8.05;;;2.05;;
24483;SDS011;12643;51.620;7.548;2023-04-25T09:42:29;11.20;;;2.28;;
24483;SDS011;12643;51.620;7.548;2023-04-25T09:45:00;9.27;;;2.33;;
24483;SDS011;12643;51.620;7.548;2023-04-25T09:47:30;9.77;;;2.60;;
24483;SDS011;12643;51.620;7.548;2023-04-25T09:50:01;11.43;;;3.10;;
24483;SDS011;12643;51.620;7.548;2023-04-25T09:52:29;11.82;;;2.17;;
24483;SDS011;12643;51.620;7.548;2023-04-25T09:54:58;9.02;;;2.17;;
24483;SDS011;12643;51.620;7.548;2023-04-25T09:57:27;5.72;;;2.03;;
24483;SDS011;12643;51.620;7.548;2023-04-25T09:59:55;11.63;;;2.25;;
24483;SDS011;12643;51.620;7.548;2023-04-25T10:02:25;7.32;;;2.13;;
24483;SDS011;12643;51.620;7.548;2023-04-25T10:04:55;9.53;;;2.40;;
24483;SDS011;12643;51.620;7.548;2023-04-25T10:07:25;9.60;;;2.13;;
24483;SDS011;12643;51.620;7.548;2023-04-25T10:09:58;7.05;;;2.15;;
24483;SDS011;12643;51.620;7.548;2023-04-25T10:12:29;7.30;;;1.90;;
24483;SDS011;12643;51.620;7.548;2023-04-25T10:15:01;8.10;;;1.83;;
24483;SDS011;12643;51.620;7.548;2023-04-25T10:17:32;8.52;;;1.92;;
24483;SDS011;12643;51.620;7.548;2023-04-25T10:20:06;6.68;;;2.25;;
24483;SDS011;12643;51.620;7.548;2023-04-25T10:22:41;11.63;;;2.35;;
24483;SDS011;12643;51.620;7.548;2023-04-25T10:25:11;8.75;;;1.90;;
24483;SDS011;12643;51.620;7.548;2023-04-25T10:27:41;6.88;;;2.08;;
24483;SDS011;12643;51.620;7.548;2023-04-25T10:30:13;8.45;;;2.00;;
24483;SDS011;12643;51.620;7.548;2023-04-25T10:32:44;6.88;;;2.08;;
24483;SDS011;12643;51.620;7.548;2023-04-25T10:35:17;6.40;;;1.77;;
24483;SDS011;12643;51.620;7.548;2023-04-25T10:37:56;5.53;;;1.70;;
24483;SDS011;12643;51.620;7.548;2023-04-25T10:40:26;12.57;;;2.15;;
24483;SDS011;12643;51.620;7.548;2023-04-25T10:42:56;9.30;;;2.58;;
24483;SDS011;12643;51.620;7.548;2023-04-25T10:46:32;17.88;;;2.55;;
24483;SDS011;12643;51.620;7.548;2023-04-25T10:49:02;6.65;;;2.25;;
24483;SDS011;12643;51.620;7.548;2023-04-25T10:51:37;7.47;;;2.28;;
24483;SDS011;12643;51.620;7.548;2023-04-25T10:54:08;6.93;;;1.55;;
24483;SDS011;12643;51.620;7.548;2023-04-25T10:56:39;10.57;;;2.28;;
24483;SDS011;12643;51.620;7.548;2023-04-25T11:01:45;8.45;;;2.00;;
24483;SDS011;12643;51.620;7.548;2023-04-25T11:04:21;7.68;;;1.70;;
24483;SDS011;12643;51.620;7.548;2023-04-25T11:06:55;11.45;;;2.15;;
24483;SDS011;12643;51.620;7.548;2023-04-25T11:09:42;8.07;;;1.90;;
24483;SDS011;12643;51.620;7.548;2023-04-25T11:12:24;10.60;;;2.50;;
24483;SDS011;12643;51.620;7.548;2023-04-25T11:14:58;6.93;;;2.10;;
24483;SDS011;12643;51.620;7.548;2023-04-25T11:17:29;7.93;;;2.15;;
24483;SDS011;12643;51.620;7.548;2023-04-25T11:20:00;6.55;;;2.20;;
24483;SDS011;12643;51.620;7.548;2023-04-25T11:22:35;14.65;;;4.65;;
24483;SDS011;12643;51.620;7.548;2023-04-25T11:25:06;10.48;;;3.35;;
24483;SDS011;12643;51.620;7.548;2023-04-25T11:27:37;3.03;;;0.90;;
24483;SDS011;12643;51.620;7.548;2023-04-25T11:30:16;6.00;;;1.63;;
24483;SDS011;12643;51.620;7.548;2023-04-25T11:32:45;6.93;;;3.05;;
24483;SDS011;12643;51.620;7.548;2023-04-25T11:35:16;4.45;;;2.33;;
24483;SDS011;12643;51.620;7.548;2023-04-25T11:37:53;5.93;;;1.50;;
24483;SDS011;12643;51.620;7.548;2023-04-25T11:40:22;4.95;;;1.40;;
24483;SDS011;12643;51.620;7.548;2023-04-25T11:42:54;7.93;;;1.95;;
24483;SDS011;12643;51.620;7.548;2023-04-25T11:45:29;4.25;;;1.27;;
24483;SDS011;12643;51.620;7.548;2023-04-25T11:47:57;5.35;;;1.15;;
24483;SDS011;12643;51.620;7.548;2023-04-25T11:50:28;4.45;;;1.38;;
24483;SDS011;12643;51.620;7.548;2023-04-25T11:52:58;7.72;;;1.48;;
24483;SDS011;12643;51.620;7.548;2023-04-25T11:55:28;2.70;;;0.63;;
24483;SDS011;12643;51.620;7.548;2023-04-25T11:57:59;3.20;;;1.02;;
24483;SDS011;12643;51.620;7.548;2023-04-25T12:00:29;4.72;;;1.00;;
24483;SDS011;12643;51.620;7.548;2023-04-25T12:02:58;3.97;;;1.10;;
24483;SDS011;12643;51.620;7.548;2023-04-25T12:05:28;1.48;;;0.73;;
24483;SDS011;12643;51.620;7.548;2023-04-25T12:08:12;3.67;;;0.98;;
24483;SDS011;12643;51.620;7.548;2023-04-25T12:10:43;5.80;;;1.58;;
24483;SDS011;12643;51.620;7.548;2023-04-25T12:13:19;3.67;;;1.13;;
24483;SDS011;12643;51.620;7.548;2023-04-25T12:15:48;7.40;;;1.13;;
24483;SDS011;12643;51.620;7.548;2023-04-25T12:18:22;2.97;;;0.85;;
24483;SDS011;12643;51.620;7.548;2023-04-25T12:20:55;3.83;;;0.98;;
24483;SDS011;12643;51.620;7.548;2023-04-25T12:23:26;4.18;;;1.55;;
24483;SDS011;12643;51.620;7.548;2023-04-25T12:25:55;2.60;;;1.10;;
24483;SDS011;12643;51.620;7.548;2023-04-25T12:28:24;5.55;;;1.40;;
24483;SDS011;12643;51.620;7.548;2023-04-25T12:30:55;4.13;;;1.08;;
24483;SDS011;12643;51.620;7.548;2023-04-25T12:33:25;5.70;;;1.35;;
24483;SDS011;12643;51.620;7.548;2023-04-25T12:35:55;6.82;;;1.70;;
24483;SDS011;12643;51.620;7.548;2023-04-25T12:38:27;5.38;;;1.70;;
24483;SDS011;12643;51.620;7.548;2023-04-25T12:41:09;2.53;;;1.17;;
24483;SDS011;12643;51.620;7.548;2023-04-25T12:43:42;7.47;;;1.50;;
24483;SDS011;12643;51.620;7.548;2023-04-25T12:46:12;4.10;;;1.50;;
24483;SDS011;12643;51.620;7.548;2023-04-25T12:48:46;5.32;;;1.50;;
24483;SDS011;12643;51.620;7.548;2023-04-25T12:51:16;4.35;;;1.42;;
24483;SDS011;12643;51.620;7.548;2023-04-25T12:53:46;8.93;;;1.55;;
24483;SDS011;12643;51.620;7.548;2023-04-25T12:56:22;7.30;;;1.65;;
24483;SDS011;12643;51.620;7.548;2023-04-25T12:58:53;3.15;;;1.55;;
24483;SDS011;12643;51.620;7.548;2023-04-25T13:01:23;3.47;;;1.33;;
24483;SDS011;12643;51.620;7.548;2023-04-25T13:06:26;5.15;;;1.55;;
24483;SDS011;12643;51.620;7.548;2023-04-25T13:08:57;3.40;;;1.13;;
24483;SDS011;12643;51.620;7.548;2023-04-25T13:11:25;9.38;;;1.60;;
24483;SDS011;12643;51.620;7.548;2023-04-25T13:13:53;6.68;;;1.60;;
24483;SDS011;12643;51.620;7.548;2023-04-25T13:16:24;3.65;;;1.17;;
24483;SDS011;12643;51.620;7.548;2023-04-25T13:18:52;3.83;;;1.23;;
24483;SDS011;12643;51.620;7.548;2023-04-25T13:21:21;4.75;;;1.50;;
24483;SDS011;12643;51.620;7.548;2023-04-25T13:23:49;3.28;;;1.13;;
24483;SDS011;12643;51.620;7.548;2023-04-25T13:26:19;4.93;;;1.25;;
24483;SDS011;12643;51.620;7.548;2023-04-25T13:28:47;5.68;;;1.42;;
24483;SDS011;12643;51.620;7.548;2023-04-25T13:31:15;4.18;;;1.30;;
24483;SDS011;12643;51.620;7.548;2023-04-25T13:33:44;3.65;;;1.10;;
24483;SDS011;12643;51.620;7.548;2023-04-25T13:36:12;6.82;;;1.60;;
24483;SDS011;12643;51.620;7.548;2023-04-25T13:38:42;6.07;;;1.50;;
24483;SDS011;12643;51.620;7.548;2023-04-25T13:41:12;5.63;;;1.00;;
24483;SDS011;12643;51.620;7.548;2023-04-25T13:43:46;5.97;;;1.10;;
24483;SDS011;12643;51.620;7.548;2023-04-25T13:46:14;2.35;;;1.25;;
24483;SDS011;12643;51.620;7.548;2023-04-25T13:48:42;3.63;;;1.10;;
24483;SDS011;12643;51.620;7.548;2023-04-25T13:51:14;2.40;;;0.80;;
24483;SDS011;12643;51.620;7.548;2023-04-25T13:53:44;3.55;;;1.10;;
24483;SDS011;12643;51.620;7.548;2023-04-25T13:56:12;3.63;;;1.10;;
24483;SDS011;12643;51.620;7.548;2023-04-25T13:58:40;1.48;;;1.00;;
24483;SDS011;12643;51.620;7.548;2023-04-25T14:01:12;4.38;;;0.80;;
24483;SDS011;12643;51.620;7.548;2023-04-25T14:03:41;4.68;;;1.13;;
24483;SDS011;12643;51.620;7.548;2023-04-25T14:06:09;4.13;;;1.00;;
24483;SDS011;12643;51.620;7.548;2023-04-25T14:08:39;6.10;;;1.30;;
24483;SDS011;12643;51.620;7.548;2023-04-25T14:11:07;4.32;;;1.40;;
24483;SDS011;12643;51.620;7.548;2023-04-25T14:13:35;3.63;;;1.20;;
24483;SDS011;12643;51.620;7.548;2023-04-25T14:16:04;3.25;;;1.10;;
24483;SDS011;12643;51.620;7.548;2023-04-25T14:18:33;5.82;;;1.17;;
24483;SDS011;12643;51.620;7.548;2023-04-25T14:21:01;5.43;;;1.52;;
24483;SDS011;12643;51.620;7.548;2023-04-25T14:23:30;2.35;;;0.82;;
24483;SDS011;12643;51.620;7.548;2023-04-25T14:25:58;6.88;;;1.30;;
24483;SDS011;12643;51.620;7.548;2023-04-25T14:28:26;4.75;;;1.65;;
24483;SDS011;12643;51.620;7.548;2023-04-25T14:30:54;4.90;;;1.60;;
24483;SDS011;12643;51.620;7.548;2023-04-25T14:33:22;4.43;;;1.52;;
24483;SDS011;12643;51.620;7.548;2023-04-25T14:35:54;4.72;;;1.50;;
24483;SDS011;12643;51.620;7.548;2023-04-25T14:38:22;5.47;;;1.35;;
24483;SDS011;12643;51.620;7.548;2023-04-25T14:40:54;3.65;;;1.27;;
24483;SDS011;12643;51.620;7.548;2023-04-25T14:43:23;6.25;;;1.15;;
24483;SDS011;12643;51.620;7.548;2023-04-25T14:45:51;4.20;;;1.65;;
24483;SDS011;12643;51.620;7.548;2023-04-25T14:48:22;5.97;;;2.15;;
24483;SDS011;12643;51.620;7.548;2023-04-25T14:50:51;5.75;;;1.58;;
24483;SDS011;12643;51.620;7.548;2023-04-25T14:53:22;3.28;;;1.50;;
24483;SDS011;12643;51.620;7.548;2023-04-25T14:55:50;4.78;;;1.30;;
24483;SDS011;12643;51.620;7.548;2023-04-25T14:58:21;7.15;;;1.70;;
24483;SDS011;12643;51.620;7.548;2023-04-25T15:00:49;7.13;;;1.70;;
24483;SDS011;12643;51.620;7.548;2023-04-25T15:03:17;5.55;;;2.25;;
24483;SDS011;12643;51.620;7.548;2023-04-25T15:05:45;4.68;;;1.40;;
24483;SDS011;12643;51.620;7.548;2023-04-25T15:08:17;6.22;;;1.50;;
24483;SDS011;12643;51.620;7.548;2023-04-25T15:10:46;4.28;;;1.30;;